Decoded Metar for KRPD (RICE LAKE in WI, USA) (IATA:RPD) | Meteo·Mobile Aviation Weather
aviador You're here:

KRPD Decoded Metar

RICE LAKE in WI, USA
Report Time2019-07-23 07:35:00
UTC Time2019-07-23 07:29:55
Flight Rules vfr VFR
WindCalm
Visibility9999 m
Phenomena:N/A
Clouds:Scattered 100 Hf
Expected CloudBase > 2,800 ft AGL from Temp-Dew spread
CeilingNone
Temp15°C (ISA +2)
Dew Point08°C (63% RH)
AAT14.5°C
QNH1022 hPa
Density Alt1,214 ft
Elevation1,109 ft
Report Wrong Elevation
Raw Report
METAR KRPD 230735Z AUTO 00000KT 10SM SCT100 15/08 A3019 RMK AO2
T01490082=

Extra information for KRPD:More info

Metar Taf Metar & Taf Last 4 Metars F.Rules Stats Wind Profile Meteogram Temp Stats Airport Information Weather charts Add Link Nearby VenuesMetar ALERT Operation Metar Decoded Social comments

AIRNAV info for KRPD